Terminal Aerodrome Forecast
Issued by NWS Northern Indiana

Home | Current Version | Previous Version | Graphics & Text | Print | Product List | Glossary On
Versions: 1 2 3 4 5 6 7 8 9 10 11 12 13
000
FTUS43 KIWX 202300
TAFFWA
TAF
KFWA 202328Z 2100/2124 05008KT P6SM -RA OVC070
     FM210500 01005KT P6SM OVC060
     FM211500 31012KT P6SM BKN060
     FM212100 30012KT P6SM SKC=

USA.gov is the U.S. government's official web portal to all federal, state and local government web resources and services.